Time;durP1;ratioP1;P1;durP2;ratioP2;P2;SDS_P1;SDS_P2;PMS_P1;PMS_P2;Temp;Humidity;BMP_temperature;BMP_pressure;BME280_temperature;BME280_humidity;BME280_pressure;Samples;Min_cycle;Max_cycle;Signal;HPM_P1;HPM_P2
2022/01/15 00:01:05;;;;;;;12.60;6.65;;;;;;;6.04;61.32;100800.31;4427849;32;34441;-85
2022/01/15 00:03:33;;;;;;;15.07;6.97;;;;;;;5.95;61.56;100797.78;4416401;32;33156;-85
2022/01/15 00:06:01;;;;;;;12.88;6.97;;;;;;;6.17;60.82;100804.53;4416241;32;33025;-85
2022/01/15 00:08:28;;;;;;;12.27;6.60;;;;;;;6.05;61.17;100800.31;4421265;32;32969;-85
2022/01/15 00:10:57;;;;;;;11.35;7.12;;;;;;;5.95;61.53;100801.28;4415228;32;33064;-86
2022/01/15 00:13:28;;;;;;;13.75;6.53;;;;;;;5.92;61.57;100810.91;4413906;32;32842;-86
2022/01/15 00:16:07;;;;;;;12.57;5.35;;;;;;;6.03;61.36;100811.66;4426333;32;33950;-86
2022/01/15 00:18:45;;;;;;;13.95;6.93;;;;;;;5.81;62.03;100811.84;4427682;32;34039;-86
2022/01/15 00:21:14;;;;;;;9.65;6.12;;;;;;;6.12;60.72;100803.72;4396944;32;32472;-86
2022/01/15 00:23:43;;;;;;;10.85;6.00;;;;;;;5.83;61.77;100815.31;4421231;32;33329;-85
2022/01/15 00:26:11;;;;;;;11.82;6.40;;;;;;;6.08;61.23;100817.78;4425748;32;33037;-85
2022/01/15 00:28:39;;;;;;;11.20;6.20;;;;;;;5.71;62.21;100825.91;4428377;32;34752;-85
2022/01/15 00:31:07;;;;;;;14.25;7.32;;;;;;;5.78;62.23;100835.44;4414930;32;32632;-85
2022/01/15 00:33:34;;;;;;;11.20;6.10;;;;;;;5.95;61.63;100826.63;4414896;32;32003;-86
2022/01/15 00:36:02;;;;;;;8.90;5.72;;;;;;;5.74;62.00;100832.84;4414846;32;32435;-86
2022/01/15 00:38:30;;;;;;;10.68;6.45;;;;;;;5.74;62.03;100835.47;4415207;32;33576;-87
2022/01/15 00:40:58;;;;;;;11.77;5.97;;;;;;;5.83;62.07;100831.03;4426307;32;34471;-87
2022/01/15 00:43:25;;;;;;;9.20;5.45;;;;;;;5.86;61.84;100836.25;4427785;32;34059;-85
2022/01/15 00:45:55;;;;;;;7.50;5.12;;;;;;;5.70;62.09;100826.78;4420413;32;33693;-85
2022/01/15 00:48:26;;;;;;;9.05;5.32;;;;;;;5.64;62.70;100829.44;4428000;32;34036;-85
2022/01/15 00:51:01;;;;;;;12.27;6.72;;;;;;;5.71;62.45;100836.38;4429083;32;33909;-86
2022/01/15 00:53:29;;;;;;;12.80;5.95;;;;;;;5.71;62.71;100841.63;4427234;32;32702;-85
2022/01/15 00:55:56;;;;;;;9.98;5.82;;;;;;;5.36;63.72;100853.22;4426141;32;32273;-85
2022/01/15 00:58:24;;;;;;;11.00;5.90;;;;;;;5.60;63.08;100848.66;4414641;32;34774;-85
2022/01/15 01:00:52;;;;;;;11.18;5.72;;;;;;;5.67;62.70;100858.25;4425246;32;33432;-86
2022/01/15 01:03:20;;;;;;;10.27;6.35;;;;;;;5.67;62.45;100860.87;4408271;32;33179;-84
2022/01/15 01:05:47;;;;;;;9.18;5.53;;;;;;;5.89;61.65;100862.47;4406927;32;32646;-84
2022/01/15 01:08:15;;;;;;;10.13;5.65;;;;;;;6.01;61.58;100865.88;4415645;32;33949;-84
2022/01/15 01:10:53;;;;;;;10.85;5.50;;;;;;;5.57;62.93;100872.28;4426169;32;34164;-84
2022/01/15 01:24:26;;;;;;;11.63;5.53;;;;;;;5.47;63.31;100884.56;4416115;32;34062;-85
2022/01/15 01:31:57;;;;;;;10.40;5.62;;;;;;;5.73;62.39;100881.78;4425768;32;33505;-84
2022/01/15 01:34:27;;;;;;;9.48;5.53;;;;;;;5.86;62.15;100875.56;4413458;32;33718;-85
2022/01/15 01:39:37;;;;;;;9.90;5.80;;;;;;;5.50;63.14;100883.66;4428868;32;33682;-85
2022/01/15 01:45:12;;;;;;;9.48;5.40;;;;;;;5.37;63.56;100878.50;4433375;32;32846;-85
2022/01/15 01:47:42;;;;;;;13.13;6.47;;;;;;;5.49;63.18;100866.22;4407985;32;34278;-85
2022/01/15 01:50:14;;;;;;;9.75;5.65;;;;;;;5.53;63.11;100865.31;4420591;32;33341;-85
2022/01/15 01:52:45;;;;;;;11.93;6.65;;;;;;;5.06;64.79;100861.19;4413895;32;33479;-85
2022/01/15 01:55:12;;;;;;;8.82;5.25;;;;;;;5.39;63.65;100855.78;4420523;32;33902;-85
2022/01/15 01:57:41;;;;;;;10.13;6.82;;;;;;;5.50;63.55;100850.47;4428665;32;33378;-85
2022/01/15 02:00:11;;;;;;;10.30;5.78;;;;;;;5.83;62.28;100854.63;4427868;32;33571;-85
2022/01/15 02:02:43;;;;;;;8.43;5.47;;;;;;;5.67;62.73;100854.75;4423638;32;34057;-84
2022/01/15 02:05:12;;;;;;;10.73;6.55;;;;;;;5.42;63.43;100869.75;4424126;32;33492;-84
2022/01/15 02:07:43;;;;;;;10.60;5.95;;;;;;;5.60;62.84;100870.53;4405697;32;32793;-84
2022/01/15 02:10:13;;;;;;;11.95;6.00;;;;;;;5.55;62.92;100866.16;4399405;32;32572;-85
2022/01/15 02:12:42;;;;;;;10.30;6.00;;;;;;;5.19;64.13;100868.13;4428200;32;34292;-85
2022/01/15 02:15:15;;;;;;;9.98;5.15;;;;;;;5.72;62.38;100864.31;4409585;32;31598;-85
2022/01/15 02:17:44;;;;;;;9.30;6.07;;;;;;;5.40;63.16;100875.84;4408977;32;33520;-85
2022/01/15 02:23:32;;;;;;;11.02;6.18;;;;;;;5.68;62.19;100880.06;4415261;32;32210;-85
2022/01/15 02:25:59;;;;;;;11.68;6.30;;;;;;;5.84;61.66;100863.34;4421978;32;34044;-85
2022/01/15 02:28:29;;;;;;;12.77;6.43;;;;;;;5.35;62.91;100867.16;4415852;32;32994;-86
2022/01/15 02:31:07;;;;;;;11.50;6.32;;;;;;;5.42;63.06;100867.16;4403194;32;32730;-84
2022/01/15 02:33:37;;;;;;;9.18;5.60;;;;;;;5.39;62.96;100871.50;4427744;32;34577;-84
2022/01/15 02:36:08;;;;;;;12.15;6.22;;;;;;;5.58;62.31;100876.63;4415601;32;33420;-83
2022/01/15 02:38:37;;;;;;;8.32;5.22;;;;;;;5.50;62.49;100874.06;4415579;32;32784;-84
2022/01/15 02:41:05;;;;;;;8.57;5.28;;;;;;;5.52;62.58;100866.22;4428858;32;34719;-84
2022/01/15 02:43:35;;;;;;;11.00;6.45;;;;;;;5.63;62.00;100864.37;4429645;32;32434;-84
2022/01/15 02:46:45;;;;;;;11.15;6.20;;;;;;;5.31;62.84;100864.56;4422551;32;32484;-84
2022/01/15 02:49:01;;;;;;;11.43;5.70;;;;;;;5.38;62.74;100868.91;4426525;32;33110;-86
2022/01/15 02:51:31;;;;;;;12.80;6.53;;;;;;;5.33;62.74;100871.53;4417185;32;32821;-86
2022/01/15 02:53:59;;;;;;;9.63;5.65;;;;;;;5.34;62.62;100862.81;4421723;32;33251;-84
2022/01/15 02:56:35;;;;;;;11.70;6.32;;;;;;;5.13;63.09;100857.69;4421056;32;32384;-84
2022/01/15 02:59:05;;;;;;;10.77;6.05;;;;;;;5.08;63.44;100859.44;4413331;32;32764;-84
2022/01/15 03:01:33;;;;;;;11.93;5.93;;;;;;;5.02;63.57;100854.22;4421688;32;33840;-84
2022/01/15 03:04:02;;;;;;;11.10;5.97;;;;;;;4.83;64.30;100850.81;4414482;32;34215;-84
2022/01/15 03:06:30;;;;;;;11.90;6.57;;;;;;;4.53;64.87;100850.03;4409272;32;33337;-85
2022/01/15 03:08:57;;;;;;;10.63;6.70;;;;;;;4.79;64.46;100849.94;4429329;32;34044;-84
2022/01/15 03:11:27;;;;;;;8.95;5.93;;;;;;;4.98;63.79;100849.88;4414212;32;33439;-84
2022/01/15 03:13:55;;;;;;;12.05;6.45;;;;;;;5.02;63.57;100849.00;4427796;32;33662;-84
2022/01/15 03:16:23;;;;;;;8.95;5.90;;;;;;;4.75;63.76;100848.25;4415466;32;32362;-85
2022/01/15 03:18:51;;;;;;;11.60;6.90;;;;;;;4.72;63.85;100849.97;4428568;32;33220;-84
2022/01/15 03:21:19;;;;;;;10.07;6.15;;;;;;;4.58;64.34;100843.03;4427060;32;33805;-85
2022/01/15 03:23:48;;;;;;;16.75;6.47;;;;;;;4.90;63.30;100852.53;4429367;32;33529;-84
2022/01/15 03:26:15;;;;;;;11.77;6.90;;;;;;;4.80;63.67;100849.09;4415892;32;32304;-84
2022/01/15 03:28:43;;;;;;;10.13;6.55;;;;;;;4.85;63.40;100860.41;4426986;32;33465;-84
2022/01/15 03:31:11;;;;;;;9.52;5.62;;;;;;;4.86;63.39;100864.75;4416668;32;35439;-84
2022/01/15 03:33:40;;;;;;;11.10;5.68;;;;;;;4.62;64.52;100872.69;4421542;32;34575;-85
2022/01/15 03:36:10;;;;;;;8.43;5.95;;;;;;;4.55;64.15;100866.56;4426436;32;33018;-84
2022/01/15 03:38:38;;;;;;;11.75;6.60;;;;;;;4.92;62.95;100863.00;4415892;32;33171;-85
2022/01/15 03:41:06;;;;;;;10.73;5.97;;;;;;;4.82;63.46;100867.41;4416479;32;33056;-87
2022/01/15 03:43:33;;;;;;;10.60;5.72;;;;;;;4.80;62.95;100864.78;4415108;32;33925;-85
2022/01/15 03:46:01;;;;;;;10.63;6.15;;;;;;;4.91;62.38;100876.97;4427125;32;33726;-85
2022/01/15 03:48:29;;;;;;;10.60;5.75;;;;;;;4.73;62.49;100877.87;4408761;32;33420;-85
2022/01/15 03:50:57;;;;;;;11.38;5.80;;;;;;;4.34;63.57;100872.72;4427687;32;34513;-86
2022/01/15 03:53:25;;;;;;;9.93;5.80;;;;;;;4.39;63.63;100872.72;4414162;32;33628;-86
2022/01/15 03:55:53;;;;;;;13.73;6.00;;;;;;;4.34;63.92;100880.56;4415196;32;32692;-86
2022/01/15 03:58:20;;;;;;;10.15;6.60;;;;;;;4.06;64.89;100892.78;4427850;32;33413;-86
2022/01/15 04:00:48;;;;;;;11.45;5.93;;;;;;;4.20;64.67;100892.78;4428138;32;34849;-86
2022/01/15 04:03:17;;;;;;;13.77;7.25;;;;;;;4.09;64.62;100905.00;4421792;32;33396;-86
2022/01/15 04:05:45;;;;;;;9.55;5.72;;;;;;;4.32;64.56;100912.81;4415281;32;33561;-86
2022/01/15 04:08:13;;;;;;;11.82;6.70;;;;;;;4.34;63.98;100917.19;4424787;32;34602;-86
2022/01/15 04:10:42;;;;;;;9.23;5.95;;;;;;;4.10;65.12;100919.78;4415731;32;33305;-87
2022/01/15 04:13:11;;;;;;;10.77;6.03;;;;;;;4.10;64.69;100919.78;4421206;32;33997;-85
2022/01/15 04:15:38;;;;;;;11.88;6.43;;;;;;;4.01;65.34;100919.78;4432707;32;32369;-85
2022/01/15 04:18:06;;;;;;;11.80;6.75;;;;;;;3.96;65.28;100925.00;4415404;32;33820;-85
2022/01/15 04:20:34;;;;;;;11.63;6.55;;;;;;;3.81;66.59;100930.22;4421681;32;33907;-85
2022/01/15 04:23:01;;;;;;;10.60;5.90;;;;;;;3.99;66.26;100929.38;4415000;32;33305;-85
2022/01/15 04:25:29;;;;;;;9.82;6.05;;;;;;;4.03;65.51;100925.88;4414380;32;33194;-85
2022/01/15 04:28:00;;;;;;;12.55;5.85;;;;;;;4.32;64.62;100924.16;4414957;32;33543;-85
2022/01/15 04:30:33;;;;;;;9.68;5.50;;;;;;;4.49;63.96;100928.50;4427183;32;33569;-85
2022/01/15 04:33:01;;;;;;;9.05;6.20;;;;;;;4.52;63.78;100933.75;4407866;32;34338;-84
2022/01/15 04:35:28;;;;;;;10.63;5.65;;;;;;;4.29;64.14;100937.22;4419059;32;33457;-85
2022/01/15 04:38:07;;;;;;;10.95;6.07;;;;;;;4.09;64.76;100933.75;4426169;32;33896;-84
2022/01/15 04:40:35;;;;;;;12.65;6.15;;;;;;;4.32;64.01;100933.72;4415945;32;33662;-84
2022/01/15 04:43:03;;;;;;;11.65;5.62;;;;;;;4.52;63.48;100931.13;4415923;32;33566;-83
2022/01/15 04:45:31;;;;;;;8.65;5.05;;;;;;;4.43;63.98;100925.91;4406811;32;32089;-85
2022/01/15 04:47:58;;;;;;;11.48;5.93;;;;;;;4.73;63.71;100923.22;4413602;32;32566;-85
2022/01/15 04:50:26;;;;;;;11.10;6.57;;;;;;;4.70;63.82;100920.63;4417201;32;33105;-85
2022/01/15 04:52:54;;;;;;;11.00;6.55;;;;;;;4.74;63.89;100924.97;4407716;32;32112;-85
2022/01/15 04:55:21;;;;;;;9.60;5.75;;;;;;;4.60;63.95;100935.47;4426680;32;33716;-86
2022/01/15 04:57:49;;;;;;;7.95;5.28;;;;;;;4.98;63.16;100936.25;4425695;32;32856;-85
2022/01/15 05:00:18;;;;;;;8.38;5.25;;;;;;;4.92;63.24;100936.28;4410493;32;33622;-86
2022/01/15 05:02:46;;;;;;;9.35;4.75;;;;;;;4.92;62.91;100931.03;4404332;32;33025;-85
2022/01/15 05:05:13;;;;;;;14.25;5.90;;;;;;;4.80;63.25;100930.22;4430452;32;34230;-84
2022/01/15 05:07:42;;;;;;;8.07;4.97;;;;;;;4.59;63.49;100932.84;4421008;32;34492;-84
2022/01/15 05:10:13;;;;;;;9.13;4.97;;;;;;;4.75;63.33;100924.13;4405260;32;33656;-84
2022/01/15 05:12:43;;;;;;;8.98;5.37;;;;;;;4.76;63.12;100930.22;4422295;32;32376;-84
2022/01/15 05:15:14;;;;;;;12.20;5.68;;;;;;;4.81;62.99;100934.56;4391991;32;31292;-84
2022/01/15 05:17:42;;;;;;;9.43;4.78;;;;;;;4.80;63.02;100927.59;4414284;32;32802;-84
2022/01/15 05:20:11;;;;;;;10.70;5.43;;;;;;;4.39;64.70;100939.84;4420180;32;34455;-84
2022/01/15 05:22:39;;;;;;;10.48;5.18;;;;;;;4.46;64.61;100937.19;4402292;32;32963;-85
2022/01/15 05:25:07;;;;;;;11.52;5.12;;;;;;;4.60;64.39;100926.72;4395302;32;34218;-84
2022/01/15 05:27:46;;;;;;;10.57;5.47;;;;;;;4.37;64.95;100932.00;4422132;32;32769;-84
2022/01/15 05:30:14;;;;;;;11.05;6.15;;;;;;;4.33;65.19;100925.03;4402480;32;32979;-84
2022/01/15 05:32:42;;;;;;;10.15;5.15;;;;;;;4.25;65.69;100926.75;4410980;32;33118;-85
2022/01/15 05:35:10;;;;;;;8.65;5.15;;;;;;;4.32;65.21;100929.41;4415318;32;33387;-84
2022/01/15 05:37:38;;;;;;;7.57;4.53;;;;;;;4.44;64.73;100932.88;4417833;32;33775;-84
2022/01/15 05:40:06;;;;;;;7.85;5.05;;;;;;;4.65;64.38;100926.72;4420826;32;32078;-84
2022/01/15 05:42:34;;;;;;;11.43;5.57;;;;;;;4.15;65.96;100936.34;4424405;32;33757;-83
2022/01/15 05:45:03;;;;;;;10.52;5.57;;;;;;;4.53;64.59;100948.56;4420835;32;32698;-84
2022/01/15 05:47:30;;;;;;;10.98;5.18;;;;;;;4.42;64.81;100950.31;4405124;32;33796;-84
2022/01/15 05:49:58;;;;;;;9.27;5.65;;;;;;;4.42;64.57;100950.31;4402661;32;33256;-85
2022/01/15 05:52:26;;;;;;;10.32;5.28;;;;;;;4.52;64.32;100947.69;4407384;32;33131;-86
2022/01/15 05:54:54;;;;;;;8.70;5.25;;;;;;;4.60;64.11;100960.75;4401769;32;33494;-85
2022/01/15 05:57:22;;;;;;;11.68;5.28;;;;;;;4.15;64.77;100964.22;4402774;32;33028;-85
2022/01/15 05:59:51;;;;;;;9.15;5.68;;;;;;;4.46;64.38;100963.34;4404874;32;32012;-85
2022/01/15 06:02:20;;;;;;;7.97;4.45;;;;;;;4.37;64.56;100964.25;4421996;32;31668;-85
2022/01/15 06:04:49;;;;;;;12.20;5.07;;;;;;;4.85;63.07;100959.84;4408296;32;33889;-85
2022/01/15 06:07:16;;;;;;;10.93;5.60;;;;;;;4.88;62.90;100970.28;4421209;32;32348;-85
2022/01/15 06:09:44;;;;;;;9.95;5.60;;;;;;;5.08;61.82;100970.28;4407344;32;33435;-85
2022/01/15 06:12:12;;;;;;;12.50;5.78;;;;;;;4.53;63.35;100975.56;4416886;32;33543;-84
2022/01/15 06:14:39;;;;;;;9.23;5.30;;;;;;;4.68;62.96;100972.06;4423997;32;32879;-84
2022/01/15 06:17:08;;;;;;;11.68;5.47;;;;;;;4.61;63.52;100978.19;4415757;32;34640;-84
2022/01/15 06:19:37;;;;;;;11.25;5.60;;;;;;;4.72;63.31;100979.06;4404063;32;33357;-84
2022/01/15 06:22:05;;;;;;;14.50;6.65;;;;;;;4.59;63.26;100987.78;4425895;32;32700;-85
2022/01/15 06:24:33;;;;;;;16.37;7.32;;;;;;;4.52;63.56;100983.44;4416859;32;32713;-84
2022/01/15 06:27:01;;;;;;;13.35;6.18;;;;;;;4.58;63.46;100988.66;4420267;32;33100;-85
2022/01/15 06:29:29;;;;;;;8.50;5.90;;;;;;;4.43;64.06;100983.44;4409922;32;33367;-84
2022/01/15 06:31:57;;;;;;;9.77;5.53;;;;;;;4.40;64.35;100979.06;4407166;32;34639;-84
2022/01/15 06:34:25;;;;;;;11.18;5.60;;;;;;;4.17;65.38;100986.88;4390897;32;31875;-84
2022/01/15 06:36:52;;;;;;;11.80;5.55;;;;;;;4.31;64.39;100985.16;4416424;32;34172;-85
2022/01/15 06:39:20;;;;;;;11.10;5.90;;;;;;;4.30;64.37;100983.41;4422054;32;34219;-85
2022/01/15 06:41:48;;;;;;;11.52;5.47;;;;;;;4.59;63.47;100990.38;4406140;32;32302;-85
2022/01/15 06:44:15;;;;;;;11.48;5.45;;;;;;;4.72;62.62;100991.28;4422928;32;32137;-85
2022/01/15 06:46:43;;;;;;;8.48;5.10;;;;;;;4.26;64.38;100997.34;4416160;32;33270;-85
2022/01/15 06:49:11;;;;;;;10.45;5.78;;;;;;;4.45;63.82;100989.53;4417217;32;33014;-85
2022/01/15 06:51:39;;;;;;;12.63;5.95;;;;;;;4.11;65.44;101002.56;4421362;32;31773;-85
2022/01/15 06:54:06;;;;;;;12.07;5.87;;;;;;;3.87;65.91;100998.16;4420085;32;33033;-85
2022/01/15 06:56:34;;;;;;;12.50;5.15;;;;;;;4.17;65.11;101005.19;4417288;32;34209;-85
2022/01/15 06:59:02;;;;;;;12.25;5.72;;;;;;;4.49;64.29;100994.75;4422672;32;33697;-85
2022/01/15 07:01:30;;;;;;;8.45;5.03;;;;;;;4.85;62.84;100999.09;4418238;32;34475;-85
2022/01/15 07:03:58;;;;;;;13.13;6.25;;;;;;;4.66;63.50;100996.50;4415675;32;34408;-85
2022/01/15 07:06:26;;;;;;;13.23;5.35;;;;;;;4.37;64.33;101005.22;4430367;32;32839;-86
2022/01/15 07:08:53;;;;;;;9.18;5.43;;;;;;;4.73;63.15;101003.47;4430429;32;33337;-86
2022/01/15 07:11:21;;;;;;;11.68;5.72;;;;;;;4.34;64.30;101011.31;4428593;32;33565;-87
2022/01/15 07:13:49;;;;;;;8.27;4.97;;;;;;;4.55;63.43;101010.44;4407807;32;32034;-85
2022/01/15 07:16:16;;;;;;;12.52;5.68;;;;;;;4.84;62.55;101013.06;4390984;32;32213;-85
2022/01/15 07:18:45;;;;;;;9.38;5.85;;;;;;;4.83;62.68;101008.69;4402479;32;33905;-85
2022/01/15 07:21:13;;;;;;;10.65;5.85;;;;;;;4.51;63.60;101018.28;4421049;32;33320;-84
2022/01/15 07:23:40;;;;;;;10.88;5.25;;;;;;;4.73;62.80;101014.81;4419249;32;32775;-84
2022/01/15 07:26:08;;;;;;;10.05;5.07;;;;;;;4.69;63.04;101018.28;4415961;32;34332;-84
2022/01/15 07:28:36;;;;;;;9.18;5.00;;;;;;;4.57;63.36;101018.31;4408709;32;33920;-84
2022/01/15 07:31:04;;;;;;;13.93;6.22;;;;;;;4.79;62.63;101014.78;4408884;32;33790;-84
2022/01/15 07:33:33;;;;;;;9.27;4.55;;;;;;;4.45;63.58;101013.94;4420678;32;32857;-91
2022/01/15 07:36:04;;;;;;;9.40;4.62;;;;;;;4.76;62.73;101016.56;4405830;32;30988;-91
2022/01/15 07:38:32;;;;;;;10.18;5.53;;;;;;;4.75;62.79;101013.06;4405222;32;33191;-92
2022/01/15 07:41:00;;;;;;;14.40;5.62;;;;;;;4.92;62.05;101017.41;4421896;32;32936;-90
2022/01/15 07:43:29;;;;;;;10.45;4.65;;;;;;;4.90;62.28;101013.94;4392475;32;36167;-91
2022/01/15 07:45:58;;;;;;;12.88;5.55;;;;;;;4.90;62.16;101012.19;4406581;32;33011;-89
2022/01/15 07:48:25;;;;;;;11.35;4.62;;;;;;;5.10;61.49;101009.53;4418123;32;33148;-89
2022/01/15 07:50:53;;;;;;;14.10;4.78;;;;;;;4.99;61.87;101020.03;4404937;32;32888;-89
2022/01/15 07:53:21;;;;;;;8.48;4.35;;;;;;;5.10;61.40;101025.25;4429861;32;32607;-89
2022/01/15 07:55:49;;;;;;;9.48;5.00;;;;;;;4.98;61.94;101031.34;4408479;32;32871;-89
2022/01/15 07:58:17;;;;;;;10.70;4.85;;;;;;;4.86;62.08;101024.41;4415604;32;33480;-85
2022/01/15 08:00:58;;;;;;;11.07;5.35;;;;;;;4.95;61.90;101030.50;4404580;32;33968;-88
2022/01/15 08:03:36;;;;;;;10.90;4.95;;;;;;;4.93;61.89;101040.09;4403396;32;34466;-88
2022/01/15 08:06:04;;;;;;;10.15;4.70;;;;;;;4.98;61.49;101041.81;4422228;32;33844;-91
2022/01/15 08:08:40;;;;;;;16.05;7.32;;;;;;;4.95;61.50;101040.97;4400795;32;32980;-91
2022/01/15 08:11:08;;;;;;;12.45;4.55;;;;;;;5.09;60.95;101044.44;4419361;32;33036;-90
2022/01/15 08:13:36;;;;;;;38.70;13.07;;;;;;;5.18;60.79;101044.44;4416942;32;32569;-89
2022/01/15 08:16:04;;;;;;;12.65;5.90;;;;;;;5.14;60.58;101054.03;4421598;32;34196;-91
2022/01/15 08:18:33;;;;;;;8.43;3.95;;;;;;;5.67;58.93;101060.00;4419223;32;33850;-89
2022/01/15 08:21:01;;;;;;;7.05;4.40;;;;;;;5.61;59.09;101054.81;4407033;32;32890;-88
2022/01/15 08:23:30;;;;;;;7.65;3.45;;;;;;;5.67;58.35;101043.41;4393115;32;32773;-87
2022/01/15 08:25:58;;;;;;;11.25;4.97;;;;;;;5.83;57.88;101047.72;4403605;32;33810;-87
2022/01/15 08:28:26;;;;;;;10.45;4.30;;;;;;;5.60;59.09;101058.28;4410099;32;33135;-86
2022/01/15 08:30:54;;;;;;;8.70;4.78;;;;;;;5.52;58.85;101060.06;4428557;32;34379;-87
2022/01/15 08:33:22;;;;;;;9.48;4.10;;;;;;;5.75;58.22;101058.25;4404233;32;32943;-87
2022/01/15 08:35:49;;;;;;;8.50;3.20;;;;;;;5.71;58.54;101067.00;4405245;32;33754;-87
2022/01/15 08:38:17;;;;;;;12.00;4.28;;;;;;;6.01;57.28;101065.16;4400240;32;34696;-87
2022/01/15 08:40:45;;;;;;;12.30;3.50;;;;;;;6.05;56.63;101072.13;4393161;32;35763;-87
2022/01/15 08:43:13;;;;;;;8.98;3.62;;;;;;;5.75;57.47;101073.97;4421308;32;34218;-87
2022/01/15 08:45:43;;;;;;;8.10;3.65;;;;;;;6.05;56.56;101070.38;4409445;32;33795;-86
2022/01/15 08:48:11;;;;;;;8.68;2.87;;;;;;;6.19;56.03;101062.44;4424555;32;33489;-87
2022/01/15 08:50:39;;;;;;;7.55;3.03;;;;;;;6.20;56.15;101061.53;4420251;32;34164;-87
2022/01/15 08:53:07;;;;;;;15.55;5.05;;;;;;;6.21;56.20;101060.66;4397869;32;31105;-87
2022/01/15 08:55:35;;;;;;;9.02;3.30;;;;;;;6.27;56.19;101063.28;4402863;32;33519;-88
2022/01/15 08:58:03;;;;;;;9.80;4.35;;;;;;;6.34;55.55;101064.97;4403684;32;32976;-87
2022/01/15 09:00:31;;;;;;;6.62;3.33;;;;;;;6.59;55.17;101064.78;4410390;32;32801;-87
2022/01/15 09:02:59;;;;;;;11.18;3.35;;;;;;;6.68;54.71;101064.72;4401601;32;33692;-87
2022/01/15 09:05:27;;;;;;;7.07;2.97;;;;;;;6.70;54.54;101062.09;4403486;32;33281;-86
2022/01/15 09:07:56;;;;;;;11.38;3.20;;;;;;;6.89;53.58;101058.44;4404975;32;35272;-87
2022/01/15 09:10:24;;;;;;;8.07;4.00;;;;;;;6.98;53.46;101047.88;4413916;32;33892;-88
2022/01/15 09:12:51;;;;;;;11.02;4.28;;;;;;;6.89;53.37;101050.56;4420035;32;31941;-88
2022/01/15 09:15:29;;;;;;;10.98;3.95;;;;;;;6.97;53.42;101061.00;4417070;32;32602;-87
2022/01/15 09:17:57;;;;;;;9.65;4.60;;;;;;;7.28;52.39;101045.81;4406894;32;34355;-88
2022/01/15 09:20:25;;;;;;;4.97;2.83;;;;;;;7.47;52.06;101047.37;4392116;32;32877;-88
2022/01/15 09:22:53;;;;;;;10.82;2.92;;;;;;;7.06;53.09;101053.03;4421401;32;32555;-85
2022/01/15 09:25:21;;;;;;;3.87;2.15;;;;;;;7.21;52.39;101047.63;4418278;32;34016;-87
2022/01/15 09:30:36;;;;;;;12.23;2.58;;;;;;;7.42;50.22;101039.53;4408491;32;30641;-86
2022/01/15 09:33:03;;;;;;;6.87;2.25;;;;;;;7.16;50.22;101037.16;4403447;32;33972;-87
2022/01/15 09:35:31;;;;;;;7.50;2.25;;;;;;;7.19;50.70;101042.41;4390373;32;33447;-86
2022/01/15 09:38:05;;;;;;;6.75;2.62;;;;;;;7.24;50.32;101044.09;4403871;32;33764;-86
2022/01/15 09:40:34;;;;;;;6.70;2.03;;;;;;;7.07;50.36;101041.63;4416142;32;33741;-87
2022/01/15 09:43:02;;;;;;;7.25;1.77;;;;;;;6.81;52.04;101041.88;4402699;32;33490;-87
2022/01/15 09:45:31;;;;;;;7.03;2.70;;;;;;;7.10;50.14;101039.84;4429635;32;34751;-87
2022/01/15 09:48:00;;;;;;;6.75;3.08;;;;;;;6.90;51.48;101049.69;4391252;32;34705;-86
2022/01/15 09:50:28;;;;;;;6.53;2.95;;;;;;;7.44;49.31;101032.47;4420553;32;34358;-87
2022/01/15 09:52:57;;;;;;;8.25;2.03;;;;;;;7.50;48.15;101028.94;4429688;32;32700;-86
2022/01/15 09:55:25;;;;;;;6.43;2.35;;;;;;;7.18;49.92;101030.16;4405067;32;34278;-87
2022/01/15 09:57:53;;;;;;;5.45;2.10;;;;;;;7.43;48.70;101022.88;4396756;32;33594;-86
2022/01/15 10:00:23;;;;;;;4.72;2.08;;;;;;;7.68;47.67;101020.81;4404237;32;33012;-87
2022/01/15 10:02:53;;;;;;;4.93;2.15;;;;;;;7.88;46.64;101011.78;4409291;32;33719;-87
2022/01/15 10:05:21;;;;;;;7.68;2.12;;;;;;;7.91;46.88;101012.63;4420503;32;33652;-87
2022/01/15 10:07:56;;;;;;;6.97;1.98;;;;;;;7.98;46.90;101013.44;4427953;32;33068;-87
2022/01/15 10:10:26;;;;;;;7.12;2.28;;;;;;;8.02;45.50;101014.25;4425718;32;33411;-87
2022/01/15 10:12:55;;;;;;;7.82;2.33;;;;;;;7.67;47.00;101012.94;4408220;32;31442;-87
2022/01/15 10:15:22;;;;;;;6.43;1.92;;;;;;;7.81;45.92;101013.66;4407079;32;32285;-86
2022/01/15 10:17:51;;;;;;;3.97;2.12;;;;;;;7.68;46.99;101009.44;4418193;32;33838;-87
2022/01/15 10:20:23;;;;;;;8.35;2.55;;;;;;;7.98;45.60;101002.91;4416176;32;33704;-87
2022/01/15 10:22:52;;;;;;;8.27;2.53;;;;;;;7.83;45.74;101017.16;4433705;32;32685;-87
2022/01/15 10:25:21;;;;;;;4.85;2.22;;;;;;;7.98;45.58;101013.44;4404539;32;31617;-87
2022/01/15 10:27:51;;;;;;;10.43;2.67;;;;;;;7.76;45.86;101015.47;4420159;32;33644;-87
2022/01/15 10:30:28;;;;;;;6.40;2.42;;;;;;;8.02;45.48;101003.72;4409066;32;33044;-87
2022/01/15 10:32:59;;;;;;;4.15;2.08;;;;;;;7.92;45.71;101001.22;4416851;32;32976;-86
2022/01/15 10:35:41;;;;;;;10.00;2.97;;;;;;;8.55;44.14;100996.84;4420162;32;33657;-87
2022/01/15 10:38:15;;;;;;;10.38;2.53;;;;;;;8.33;44.06;100996.25;4429876;32;34411;-87
2022/01/15 10:40:45;;;;;;;11.65;2.55;;;;;;;8.72;42.85;100998.28;4420790;32;32049;-87
2022/01/15 10:43:18;;;;;;;5.45;1.80;;;;;;;8.72;43.73;100997.41;4424772;32;33548;-87
2022/01/15 10:45:56;;;;;;;8.23;2.17;;;;;;;9.05;42.01;100995.06;4408157;32;34559;-86
2022/01/15 10:48:35;;;;;;;5.03;2.00;;;;;;;8.69;43.13;101002.75;4437684;32;33910;-87
2022/01/15 10:51:08;;;;;;;6.25;3.70;;;;;;;8.92;41.88;100992.66;4410295;32;33199;-87
2022/01/15 10:53:44;;;;;;;5.05;1.85;;;;;;;8.74;41.79;100992.13;4406107;32;33026;-87
2022/01/15 10:56:15;;;;;;;6.70;1.85;;;;;;;8.47;42.32;100986.41;4411575;32;32233;-87
2022/01/15 10:58:43;;;;;;;6.57;1.80;;;;;;;8.48;42.43;100987.28;4411303;32;33227;-87
2022/01/15 11:01:12;;;;;;;5.05;1.73;;;;;;;8.82;42.24;100977.03;4421603;32;34261;-87
2022/01/15 11:03:45;;;;;;;4.22;1.52;;;;;;;9.13;41.36;100998.44;4418297;32;32628;-87
2022/01/15 11:06:20;;;;;;;4.50;1.50;;;;;;;8.89;42.56;100990.09;4399533;32;32750;-87
2022/01/15 11:08:50;;;;;;;6.60;1.92;;;;;;;8.94;41.32;100987.38;4419062;32;33209;-87
2022/01/15 11:11:20;;;;;;;5.05;1.58;;;;;;;8.77;41.70;100985.03;4422478;32;34113;-87
2022/01/15 11:13:48;;;;;;;7.12;1.52;;;;;;;8.77;41.52;100969.22;4406610;32;33618;-87
2022/01/15 11:16:17;;;;;;;9.00;2.28;;;;;;;9.19;40.89;100979.87;4393686;32;32594;-88
2022/01/15 11:18:49;;;;;;;8.15;2.03;;;;;;;9.15;40.82;100986.09;4430703;32;35163;-87
2022/01/15 11:21:19;;;;;;;7.80;2.85;;;;;;;9.30;40.74;100975.25;4423014;32;34553;-87
2022/01/15 11:23:49;;;;;;;6.82;2.22;;;;;;;9.35;40.44;100968.16;4410602;32;31917;-87
2022/01/15 11:26:24;;;;;;;5.07;1.70;;;;;;;9.27;40.92;100969.19;4411372;32;32902;-87
2022/01/15 11:28:53;;;;;;;8.02;2.17;;;;;;;9.54;40.21;100962.47;4426173;32;31446;-87
2022/01/15 11:31:27;;;;;;;8.20;2.20;;;;;;;9.38;40.45;100961.94;4420790;32;33542;-87
2022/01/15 11:34:01;;;;;;;7.87;2.35;;;;;;;9.44;40.50;100969.72;4425144;32;32992;-87
2022/01/15 11:36:36;;;;;;;6.80;2.28;;;;;;;8.89;41.79;100969.03;4410375;32;31973;-88
2022/01/15 11:39:09;;;;;;;13.10;3.20;;;;;;;9.48;41.06;100974.03;4424901;32;34406;-87
2022/01/15 11:41:39;;;;;;;5.07;1.98;;;;;;;9.19;41.77;100972.84;4412771;32;32591;-88
2022/01/15 11:44:10;;;;;;;3.85;1.60;;;;;;;9.40;41.36;100976.84;4410601;32;32891;-87
2022/01/15 11:46:43;;;;;;;5.87;2.05;;;;;;;9.52;41.17;100974.84;4410381;32;32235;-87
2022/01/15 11:49:31;;;;;;;6.25;2.17;;;;;;;9.45;41.69;100972.34;4423230;32;33346;-87
2022/01/15 11:52:05;;;;;;;6.97;1.92;;;;;;;8.98;43.38;100976.75;4424250;32;33103;-87
2022/01/15 11:54:34;;;;;;;5.22;1.65;;;;;;;9.66;41.58;100967.50;4432058;32;32329;-87
2022/01/15 11:57:03;;;;;;;6.47;2.10;;;;;;;9.35;42.08;100980.44;4405608;32;34224;-88
2022/01/15 11:59:31;;;;;;;5.62;2.00;;;;;;;9.27;43.08;100972.69;4405419;32;34459;-87
2022/01/15 12:02:05;;;;;;;3.42;2.12;;;;;;;9.25;42.38;100971.84;4416145;32;33247;-87
2022/01/15 12:04:36;;;;;;;8.05;2.42;;;;;;;9.42;42.41;100960.97;4405540;32;32915;-87
2022/01/15 12:07:06;;;;;;;11.68;3.03;;;;;;;9.37;42.43;100961.06;4416741;32;32779;-87